createdAt,value
2022-12-19T00:01:27.635Z,10.95
2022-12-19T00:03:57.583Z,11.10
2022-12-19T00:06:25.036Z,13.32
2022-12-19T00:08:52.363Z,11.90
2022-12-19T00:11:20.175Z,13.20
2022-12-19T00:13:47.342Z,11.93
2022-12-19T00:16:17.644Z,12.35
2022-12-19T00:18:46.373Z,11.82
2022-12-19T00:21:17.345Z,13.35
2022-12-19T00:23:44.248Z,12.00
2022-12-19T00:26:18.962Z,11.93
2022-12-19T00:28:47.644Z,13.18
2022-12-19T00:31:15.828Z,12.60
2022-12-19T00:33:43.598Z,11.65
2022-12-19T00:36:22.925Z,12.23
2022-12-19T00:38:51.370Z,12.73
2022-12-19T00:41:28.963Z,11.13
2022-12-19T00:43:59.525Z,12.73
2022-12-19T00:46:26.627Z,12.55
2022-12-19T00:48:55.986Z,11.60
2022-12-19T00:51:24.285Z,12.73
2022-12-19T00:53:51.303Z,13.35
2022-12-19T00:56:20.903Z,13.68
2022-12-19T00:58:47.902Z,12.35
2022-12-19T01:01:19.802Z,12.55
2022-12-19T01:04:18.585Z,12.63
2022-12-19T01:06:33.603Z,12.15
2022-12-19T01:09:01.103Z,11.85
2022-12-19T01:11:46.545Z,12.20
2022-12-19T01:14:19.066Z,12.20
2022-12-19T01:16:47.871Z,11.90
2022-12-19T01:19:14.766Z,12.25
2022-12-19T01:21:41.884Z,11.30
2022-12-19T01:24:09.704Z,12.32
2022-12-19T01:26:36.467Z,11.90
2022-12-19T01:29:03.247Z,12.63
2022-12-19T01:31:30.019Z,11.43
2022-12-19T01:33:56.790Z,11.48
2022-12-19T01:36:23.563Z,12.75
2022-12-19T01:38:50.545Z,11.82
2022-12-19T01:41:17.325Z,12.45
2022-12-19T01:44:04.383Z,12.35
2022-12-19T01:46:33.772Z,11.48
2022-12-19T01:49:00.867Z,11.57
2022-12-19T01:51:35.772Z,12.30
2022-12-19T01:54:04.631Z,12.30
2022-12-19T01:56:40.573Z,10.68
2022-12-19T01:59:10.498Z,13.35
2022-12-19T02:01:45.820Z,12.40
2022-12-19T02:04:18.873Z,13.18
2022-12-19T02:06:45.672Z,12.10
2022-12-19T02:09:12.493Z,12.35
2022-12-19T02:11:39.295Z,13.38
2022-12-19T02:14:06.140Z,12.93
2022-12-19T02:16:46.934Z,13.30
2022-12-19T02:19:46.095Z,12.50
2022-12-19T02:22:36.838Z,13.52
2022-12-19T02:25:14.461Z,12.88
2022-12-19T02:28:05.884Z,13.70
2022-12-19T02:31:17.863Z,12.95
2022-12-19T02:34:08.916Z,11.65
2022-12-19T02:36:41.954Z,11.88
2022-12-19T02:39:36.712Z,12.30
2022-12-19T02:42:03.851Z,13.57
2022-12-19T02:44:39.212Z,12.38
2022-12-19T02:47:06.473Z,12.43
2022-12-19T02:49:34.679Z,11.95
2022-12-19T02:52:19.945Z,13.63
2022-12-19T02:54:56.517Z,14.07
2022-12-19T02:57:30.255Z,12.98
2022-12-19T03:00:09.201Z,12.68
2022-12-19T03:03:00.568Z,12.07
2022-12-19T03:05:32.474Z,12.68
2022-12-19T03:08:09.145Z,12.15
2022-12-19T03:10:49.984Z,12.77
2022-12-19T03:13:55.529Z,13.27
2022-12-19T03:16:22.330Z,13.32
2022-12-19T03:18:49.087Z,11.70
2022-12-19T03:21:18.267Z,12.60
2022-12-19T03:23:45.250Z,13.73
2022-12-19T03:26:17.169Z,11.88
2022-12-19T03:29:07.917Z,11.68
2022-12-19T03:31:34.789Z,12.60
2022-12-19T03:34:22.749Z,12.25
2022-12-19T03:36:52.571Z,11.38
2022-12-19T03:39:19.397Z,12.32
2022-12-19T03:42:04.522Z,11.80
2022-12-19T03:44:33.734Z,11.70
2022-12-19T03:47:17.896Z,11.80
2022-12-19T03:49:45.477Z,11.77
2022-12-19T03:52:36.952Z,12.07
2022-12-19T03:55:04.042Z,10.77
2022-12-19T03:57:39.098Z,11.27
2022-12-19T04:00:14.102Z,11.82
2022-12-19T04:02:43.234Z,10.82
2022-12-19T04:05:12.303Z,12.00
2022-12-19T04:07:39.220Z,12.23
2022-12-19T04:10:07.917Z,12.02
2022-12-19T04:12:37.578Z,11.57
2022-12-19T04:15:05.107Z,11.75
2022-12-19T04:17:44.520Z,10.73
2022-12-19T04:20:12.239Z,11.25
2022-12-19T04:22:40.720Z,12.68
2022-12-19T04:25:10.438Z,11.23
2022-12-19T04:27:38.240Z,10.65
2022-12-19T04:30:08.600Z,8.38
2022-12-19T04:32:35.925Z,10.68
2022-12-19T04:35:03.020Z,10.85
2022-12-19T04:37:29.900Z,11.13
2022-12-19T04:39:56.682Z,10.88
2022-12-19T04:42:23.501Z,10.93
2022-12-19T04:44:50.255Z,10.82
2022-12-19T04:47:17.085Z,10.18
2022-12-19T04:49:43.878Z,9.52
2022-12-19T04:52:10.658Z,10.45
2022-12-19T04:54:38.196Z,9.50
2022-12-19T04:57:04.983Z,11.05
2022-12-19T04:59:31.764Z,10.82
2022-12-19T05:01:58.765Z,10.27
2022-12-19T05:04:26.558Z,10.45
2022-12-19T05:06:53.960Z,9.13
2022-12-19T05:09:20.760Z,11.45
2022-12-19T05:11:47.578Z,11.10
2022-12-19T05:14:15.722Z,10.30
2022-12-19T05:16:42.565Z,11.07
2022-12-19T05:19:09.358Z,11.50
2022-12-19T05:21:36.142Z,10.95
2022-12-19T05:24:03.135Z,9.82
2022-12-19T05:26:29.904Z,9.70
2022-12-19T05:28:56.697Z,10.80
2022-12-19T05:31:23.499Z,11.70
2022-12-19T05:33:50.327Z,10.93
2022-12-19T05:36:17.737Z,11.57
2022-12-19T05:38:44.571Z,11.57
2022-12-19T05:41:16.194Z,11.77
2022-12-19T05:43:43.981Z,10.13
2022-12-19T05:46:10.933Z,11.07
2022-12-19T05:48:37.864Z,12.60
2022-12-19T05:51:04.961Z,12.55
2022-12-19T05:53:31.772Z,12.05
2022-12-19T05:56:09.014Z,11.55
2022-12-19T05:58:36.097Z,12.30
2022-12-19T06:01:04.598Z,11.82
2022-12-19T06:03:31.480Z,12.38
2022-12-19T06:05:58.331Z,11.98
2022-12-19T06:08:25.276Z,13.00
2022-12-19T06:10:52.374Z,12.52
2022-12-19T06:13:24.808Z,12.75
2022-12-19T06:15:57.604Z,12.43
2022-12-19T06:18:24.672Z,10.88
2022-12-19T06:21:05.831Z,11.90
2022-12-19T06:23:33.893Z,11.82
2022-12-19T06:26:01.036Z,11.68
2022-12-19T06:28:28.176Z,10.90
2022-12-19T06:30:58.636Z,12.13
2022-12-19T06:33:26.688Z,12.05
2022-12-19T06:36:00.798Z,11.18
2022-12-19T06:38:28.088Z,12.10
2022-12-19T06:41:13.546Z,11.32
2022-12-19T06:43:40.508Z,12.00
2022-12-19T06:46:07.415Z,9.98
2022-12-19T06:48:34.348Z,11.85
2022-12-19T06:51:01.198Z,11.00
2022-12-19T06:53:28.105Z,12.07
2022-12-19T06:55:56.386Z,11.27
2022-12-19T06:58:24.444Z,11.65
2022-12-19T07:00:51.777Z,12.13
2022-12-19T07:03:23.203Z,10.85
2022-12-19T07:05:50.004Z,10.68
2022-12-19T07:08:16.938Z,10.60
2022-12-19T07:10:43.758Z,10.30
2022-12-19T07:13:10.545Z,11.52
2022-12-19T07:15:37.930Z,10.02
2022-12-19T07:18:05.190Z,11.50
2022-12-19T07:20:32.104Z,11.95
2022-12-19T07:22:58.868Z,10.38
2022-12-19T07:25:25.624Z,10.32
2022-12-19T07:27:52.447Z,11.13
2022-12-19T07:30:19.395Z,10.38
2022-12-19T07:32:46.187Z,10.98
2022-12-19T07:35:12.992Z,10.88
2022-12-19T07:37:40.333Z,10.63
2022-12-19T07:40:07.724Z,10.98
2022-12-19T07:42:35.267Z,10.57
2022-12-19T07:45:02.079Z,11.80
2022-12-19T07:47:28.862Z,10.90
2022-12-19T07:49:55.645Z,9.60
2022-12-19T07:52:22.436Z,10.90
2022-12-19T07:54:49.205Z,11.35
2022-12-19T07:57:16.144Z,10.60
2022-12-19T07:59:42.911Z,11.02
2022-12-19T08:02:10.247Z,11.38
2022-12-19T08:04:37.337Z,11.38
2022-12-19T08:07:04.484Z,11.65
2022-12-19T08:09:31.345Z,11.23
2022-12-19T08:11:58.943Z,10.88
2022-12-19T08:14:25.836Z,10.90
2022-12-19T08:17:20.916Z,11.18
2022-12-19T08:19:39.370Z,12.63
2022-12-19T08:22:06.155Z,11.60
2022-12-19T08:24:33.328Z,11.48
2022-12-19T08:27:00.098Z,11.82
2022-12-19T08:29:26.865Z,11.15
2022-12-19T08:31:53.653Z,12.25
2022-12-19T08:34:20.441Z,11.48
2022-12-19T08:36:47.305Z,12.55
2022-12-19T08:39:14.214Z,11.85
2022-12-19T08:41:40.996Z,11.20
2022-12-19T08:44:10.878Z,12.32
2022-12-19T08:46:37.856Z,11.23
2022-12-19T08:49:04.825Z,12.25
2022-12-19T08:51:31.644Z,13.00
2022-12-19T08:53:59.090Z,13.43
2022-12-19T08:56:25.928Z,12.98
2022-12-19T08:58:52.728Z,12.32
2022-12-19T09:01:20.447Z,12.70
2022-12-19T09:05:21.464Z,12.32
2022-12-19T09:06:34.923Z,12.40
2022-12-19T09:09:02.645Z,12.38
2022-12-19T09:11:29.467Z,12.23
2022-12-19T09:13:56.887Z,12.75
2022-12-19T09:16:24.934Z,12.98
2022-12-19T09:18:53.121Z,12.50
2022-12-19T09:21:22.967Z,12.10
2022-12-19T09:23:54.111Z,12.98
2022-12-19T09:26:21.898Z,11.65
2022-12-19T09:28:50.030Z,12.38
2022-12-19T09:31:19.423Z,13.27
2022-12-19T09:33:46.825Z,12.63
2022-12-19T09:36:15.630Z,12.57
2022-12-19T09:38:42.550Z,12.52
2022-12-19T09:41:29.176Z,12.02
2022-12-19T09:44:33.510Z,12.45
2022-12-19T09:47:26.849Z,12.13
2022-12-19T09:49:54.544Z,12.00
2022-12-19T09:52:33.141Z,11.95
2022-12-19T09:55:24.772Z,12.40
2022-12-19T09:57:55.947Z,12.40
2022-12-19T10:00:22.871Z,13.77
2022-12-19T10:03:10.215Z,11.10
2022-12-19T10:06:33.632Z,11.70
2022-12-19T10:08:33.302Z,11.73
2022-12-19T10:12:40.989Z,11.77
2022-12-19T10:14:21.250Z,11.35
2022-12-19T10:20:13.128Z,10.63
2022-12-19T10:22:50.823Z,12.23
2022-12-19T10:25:26.748Z,12.02
2022-12-19T10:28:00.562Z,11.85
2022-12-19T10:30:31.696Z,12.25
2022-12-19T10:33:21.250Z,13.32
2022-12-19T10:35:52.030Z,12.15
2022-12-19T10:38:45.326Z,13.00
2022-12-19T10:41:23.232Z,12.00
2022-12-19T10:44:02.609Z,12.07
2022-12-19T10:46:49.538Z,12.45
2022-12-19T10:49:23.692Z,11.38
2022-12-19T10:51:56.607Z,12.90
2022-12-19T10:54:33.085Z,11.75
2022-12-19T10:57:23.107Z,12.30
2022-12-19T11:00:04.251Z,12.27
2022-12-19T11:02:40.339Z,12.23
2022-12-19T11:05:46.247Z,12.82
2022-12-19T11:08:24.302Z,11.98
2022-12-19T11:12:39.650Z,11.85
2022-12-19T11:20:06.049Z,12.48
2022-12-19T11:21:36.372Z,12.38
2022-12-19T11:29:31.090Z,11.95
2022-12-19T11:29:41.965Z,12.23
2022-12-19T11:30:36.288Z,11.98
2022-12-19T11:30:38.739Z,12.15
2022-12-19T11:34:06.832Z,12.13
2022-12-19T11:36:50.021Z,11.13
2022-12-19T11:39:32.977Z,11.90
2022-12-19T11:42:12.431Z,11.65
2022-12-19T11:45:12.481Z,13.23
2022-12-19T11:48:16.798Z,12.10
2022-12-19T11:51:06.043Z,11.55
2022-12-19T11:54:05.081Z,11.48
2022-12-19T11:56:31.906Z,12.35
2022-12-19T11:59:04.977Z,13.20
2022-12-19T12:01:58.570Z,13.07
2022-12-19T12:04:46.967Z,12.45
2022-12-19T12:08:48.596Z,12.75
2022-12-19T12:12:47.465Z,11.13
2022-12-19T12:20:21.907Z,12.32
2022-12-19T12:30:53.673Z,12.27
2022-12-19T12:31:07.592Z,11.80
2022-12-19T12:31:23.832Z,11.90
2022-12-19T12:31:46.588Z,11.65
2022-12-19T12:31:47.726Z,12.05
2022-12-19T12:35:47.068Z,12.13
2022-12-19T12:37:08.259Z,12.45
2022-12-19T12:38:25.129Z,12.50
2022-12-19T12:41:15.044Z,11.75
2022-12-19T12:44:08.973Z,13.15
2022-12-19T12:46:40.185Z,12.50
2022-12-19T12:49:33.125Z,13.20
2022-12-19T12:52:00.098Z,12.90
2022-12-19T12:54:31.339Z,13.23
2022-12-19T12:56:58.414Z,12.75
2022-12-19T12:59:29.496Z,13.18
2022-12-19T13:01:59.875Z,12.95
2022-12-19T13:04:28.555Z,13.23
2022-12-19T13:07:27.928Z,13.85
2022-12-19T13:10:25.556Z,12.10
2022-12-19T13:13:21.140Z,12.73
2022-12-19T13:15:51.106Z,12.73
2022-12-19T13:18:39.392Z,12.88
2022-12-19T13:21:07.608Z,12.52
2022-12-19T13:23:37.060Z,13.82
2022-12-19T13:26:04.480Z,13.70
2022-12-19T13:28:31.243Z,14.27
2022-12-19T13:31:19.174Z,13.57
2022-12-19T13:34:14.865Z,12.60
2022-12-19T13:39:51.352Z,13.88
2022-12-19T13:40:12.263Z,13.82
2022-12-19T13:43:10.816Z,14.10
2022-12-19T13:45:38.755Z,14.38
2022-12-19T13:48:13.034Z,14.15
2022-12-19T13:50:40.433Z,14.32
2022-12-19T13:53:18.371Z,15.10
2022-12-19T13:55:45.212Z,14.63
2022-12-19T13:58:32.803Z,15.02
2022-12-19T14:01:20.742Z,13.88
2022-12-19T14:03:48.530Z,14.68
2022-12-19T14:06:26.393Z,13.82
2022-12-19T14:08:59.319Z,14.70
2022-12-19T14:13:45.125Z,14.57
2022-12-19T14:14:49.313Z,13.90
2022-12-19T14:17:36.011Z,13.93
2022-12-19T14:20:37.225Z,15.13
2022-12-19T14:22:49.563Z,14.65
2022-12-19T14:28:20.206Z,12.93
2022-12-19T14:28:21.750Z,14.52
2022-12-19T14:31:04.555Z,14.57
2022-12-19T14:33:44.256Z,14.90
2022-12-19T14:36:21.366Z,14.15
2022-12-19T14:39:25.059Z,14.70
2022-12-19T14:42:02.616Z,14.38
2022-12-19T14:52:02.646Z,15.65
2022-12-19T14:54:11.823Z,14.43
2022-12-19T14:54:22.084Z,15.38
2022-12-19T14:54:40.195Z,14.80
2022-12-19T14:59:02.049Z,15.20
2022-12-19T15:01:33.853Z,15.90
2022-12-19T15:04:53.510Z,14.98
2022-12-19T15:07:11.830Z,15.00
2022-12-19T15:11:02.798Z,14.57
2022-12-19T15:14:53.853Z,14.60
2022-12-19T15:15:50.877Z,14.18
2022-12-19T15:18:24.705Z,15.32
2022-12-19T15:20:52.318Z,15.63
2022-12-19T15:23:22.329Z,16.23
2022-12-19T15:26:06.953Z,15.65
2022-12-19T15:28:49.957Z,15.55
2022-12-19T15:31:24.601Z,16.13
2022-12-19T15:36:38.311Z,14.20
2022-12-19T15:39:05.558Z,17.27
2022-12-19T15:41:32.565Z,15.80
2022-12-19T15:44:04.533Z,16.30
2022-12-19T15:46:31.956Z,15.38
2022-12-19T15:48:58.865Z,16.05
2022-12-19T15:51:25.692Z,16.50
2022-12-19T15:53:52.473Z,16.20
2022-12-19T15:56:29.738Z,16.52
2022-12-19T15:58:57.464Z,15.95
2022-12-19T16:01:24.413Z,15.32
2022-12-19T16:03:51.568Z,16.65
2022-12-19T16:06:18.703Z,18.13
2022-12-19T16:08:45.660Z,16.20
2022-12-19T16:11:30.226Z,17.13
2022-12-19T16:13:57.403Z,16.85
2022-12-19T16:16:25.385Z,16.23
2022-12-19T16:18:52.278Z,16.65
2022-12-19T16:21:31.495Z,17.33
2022-12-19T16:24:00.582Z,16.42
2022-12-19T16:26:33.164Z,16.75
2022-12-19T16:29:00.114Z,16.75
2022-12-19T16:31:27.358Z,16.83
2022-12-19T16:33:54.377Z,17.27
2022-12-19T16:36:21.345Z,17.00
2022-12-19T16:38:48.285Z,17.20
2022-12-19T16:41:17.894Z,18.08
2022-12-19T16:43:44.797Z,18.83
2022-12-19T16:46:18.413Z,16.88
2022-12-19T16:48:45.371Z,17.75
2022-12-19T16:51:22.274Z,17.90
2022-12-19T16:53:50.801Z,17.15
2022-12-19T16:56:40.701Z,18.20
2022-12-19T16:59:29.225Z,17.83
2022-12-19T17:01:56.211Z,18.00
2022-12-19T17:04:24.772Z,17.95
2022-12-19T17:06:52.256Z,17.13
2022-12-19T17:09:23.437Z,18.67
2022-12-19T17:11:56.235Z,18.10
2022-12-19T17:14:27.904Z,17.52
2022-12-19T17:16:55.475Z,18.05
2022-12-19T17:19:26.724Z,18.13
2022-12-19T17:21:53.524Z,18.58
2022-12-19T17:24:20.327Z,17.52
2022-12-19T17:26:47.317Z,17.90
2022-12-19T17:29:14.189Z,17.50
2022-12-19T17:31:41.285Z,18.15
2022-12-19T17:34:28.538Z,19.23
2022-12-19T17:36:55.343Z,17.27
2022-12-19T17:39:24.083Z,18.65
2022-12-19T17:41:51.111Z,19.77
2022-12-19T17:44:18.039Z,18.38
2022-12-19T17:46:45.402Z,19.77
2022-12-19T17:49:30.611Z,20.00
2022-12-19T17:51:57.654Z,18.98
2022-12-19T17:54:25.380Z,18.92
2022-12-19T17:56:52.424Z,19.98
2022-12-19T17:59:20.148Z,18.52
2022-12-19T18:01:47.619Z,19.73
2022-12-19T18:04:16.431Z,20.17
2022-12-19T18:06:43.346Z,19.52
2022-12-19T18:09:20.254Z,19.42
2022-12-19T18:11:47.970Z,19.70
2022-12-19T18:14:14.994Z,19.52
2022-12-19T18:16:41.941Z,20.25
2022-12-19T18:19:19.702Z,18.75
2022-12-19T18:21:46.634Z,18.92
2022-12-19T18:24:14.835Z,19.10
2022-12-19T18:26:42.251Z,18.75
2022-12-19T18:29:09.061Z,20.45
2022-12-19T18:31:39.937Z,19.65
2022-12-19T18:34:24.170Z,20.55
2022-12-19T18:36:51.436Z,21.17
2022-12-19T18:39:26.026Z,19.42
2022-12-19T18:41:53.021Z,20.98
2022-12-19T18:44:20.066Z,19.70
2022-12-19T18:46:48.833Z,20.77
2022-12-19T18:49:16.924Z,20.40
2022-12-19T18:51:44.919Z,20.77
2022-12-19T18:54:19.433Z,21.05
2022-12-19T18:56:46.352Z,19.60
2022-12-19T18:59:13.345Z,20.17
2022-12-19T19:01:42.718Z,21.00
2022-12-19T19:04:12.252Z,20.23
2022-12-19T19:06:42.166Z,20.13
2022-12-19T19:09:16.344Z,19.75
2022-12-19T19:11:43.142Z,20.35
2022-12-19T19:14:10.042Z,20.42
2022-12-19T19:16:37.158Z,20.95
2022-12-19T19:19:04.813Z,21.55
2022-12-19T19:21:33.300Z,19.77
2022-12-19T19:24:08.841Z,21.02
2022-12-19T19:26:35.666Z,19.77
2022-12-19T19:29:03.109Z,20.92
2022-12-19T19:31:30.691Z,20.45
2022-12-19T19:34:03.930Z,20.70
2022-12-19T19:36:31.484Z,20.25
2022-12-19T19:38:58.350Z,20.45
2022-12-19T19:41:29.827Z,20.42
2022-12-19T19:43:57.575Z,20.63
2022-12-19T19:46:24.479Z,20.77
2022-12-19T19:48:51.523Z,20.63
2022-12-19T19:51:18.366Z,20.75
2022-12-19T19:53:45.201Z,21.77
2022-12-19T19:56:11.973Z,22.08
2022-12-19T19:58:38.804Z,21.83
2022-12-19T20:01:12.979Z,21.05
2022-12-19T20:03:40.493Z,22.50
2022-12-19T20:06:07.787Z,21.02
2022-12-19T20:08:39.549Z,21.65
2022-12-19T20:11:07.283Z,21.85
2022-12-19T20:13:34.232Z,21.33
2022-12-19T20:16:06.644Z,22.17
2022-12-19T20:18:33.867Z,21.83
2022-12-19T20:21:00.719Z,21.80
2022-12-19T20:23:27.592Z,21.98
2022-12-19T20:25:54.353Z,22.15
2022-12-19T20:28:21.222Z,23.15
2022-12-19T20:30:48.040Z,21.90
2022-12-19T20:33:14.892Z,21.58
2022-12-19T20:35:42.673Z,22.63
2022-12-19T20:38:09.503Z,22.30
2022-12-19T20:40:36.273Z,23.02
2022-12-19T20:43:03.078Z,22.00
2022-12-19T20:45:29.902Z,22.90
2022-12-19T20:47:56.902Z,21.50
2022-12-19T20:50:23.781Z,22.13
2022-12-19T20:52:50.757Z,23.33
2022-12-19T20:55:17.605Z,21.38
2022-12-19T20:57:44.511Z,22.02
2022-12-19T21:00:13.118Z,21.85
2022-12-19T21:03:24.894Z,22.42
2022-12-19T21:05:26.759Z,22.35
2022-12-19T21:07:53.581Z,20.65
2022-12-19T21:10:20.804Z,22.30
2022-12-19T21:12:48.219Z,21.52
2022-12-19T21:15:15.658Z,22.17
2022-12-19T21:17:42.471Z,22.17
2022-12-19T21:20:09.862Z,21.20
2022-12-19T21:22:36.754Z,21.25
2022-12-19T21:25:04.411Z,22.98
2022-12-19T21:27:31.187Z,22.42
2022-12-19T21:29:58.103Z,22.08
2022-12-19T21:32:25.112Z,21.75
2022-12-19T21:34:54.997Z,21.77
2022-12-19T21:37:24.308Z,21.67
2022-12-19T21:39:51.169Z,21.77
2022-12-19T21:42:17.993Z,22.17
2022-12-19T21:44:44.814Z,20.17
2022-12-19T21:47:11.731Z,21.52
2022-12-19T21:49:38.604Z,19.98
2022-12-19T21:52:05.554Z,21.90
2022-12-19T21:54:32.411Z,20.33
2022-12-19T21:56:59.253Z,22.25
2022-12-19T21:59:26.225Z,20.80
2022-12-19T22:01:53.176Z,20.58
2022-12-19T22:04:22.352Z,19.95
2022-12-19T22:06:50.226Z,22.05
2022-12-19T22:09:19.493Z,21.10
2022-12-19T22:11:46.462Z,19.60
2022-12-19T22:14:13.685Z,20.42
2022-12-19T22:16:40.482Z,20.05
2022-12-19T22:19:07.389Z,20.23
2022-12-19T22:21:34.217Z,20.48
2022-12-19T22:24:01.815Z,19.88
2022-12-19T22:26:31.856Z,19.50
2022-12-19T22:28:59.017Z,19.40
2022-12-19T22:31:27.626Z,19.33
2022-12-19T22:33:56.155Z,18.73
2022-12-19T22:36:28.074Z,18.88
2022-12-19T22:38:55.838Z,18.53
2022-12-19T22:41:22.876Z,17.15
2022-12-19T22:43:49.752Z,18.48
2022-12-19T22:46:26.602Z,16.88
2022-12-19T22:48:53.788Z,17.40
2022-12-19T22:51:20.868Z,16.75
2022-12-19T22:53:47.858Z,16.40
2022-12-19T22:56:16.722Z,15.68
2022-12-19T22:58:45.404Z,14.77
2022-12-19T23:01:24.211Z,14.77
2022-12-19T23:03:52.493Z,13.93
2022-12-19T23:06:19.842Z,15.43
2022-12-19T23:08:49.872Z,13.43
2022-12-19T23:11:21.453Z,14.60
2022-12-19T23:13:48.802Z,15.15
2022-12-19T23:16:16.295Z,14.52
2022-12-19T23:18:43.264Z,13.82
2022-12-19T23:21:15.128Z,13.65
2022-12-19T23:23:45.745Z,13.48
2022-12-19T23:26:24.986Z,14.50
2022-12-19T23:28:57.119Z,12.35
2022-12-19T23:31:24.233Z,12.60
2022-12-19T23:33:51.525Z,11.63
2022-12-19T23:36:38.039Z,12.75
2022-12-19T23:39:05.564Z,11.75
2022-12-19T23:41:32.578Z,11.95
2022-12-19T23:43:59.760Z,10.85
2022-12-19T23:46:27.000Z,12.02
2022-12-19T23:48:54.209Z,10.40
2022-12-19T23:51:22.901Z,10.98
2022-12-19T23:53:49.989Z,10.73
2022-12-19T23:56:23.011Z,11.00
2022-12-19T23:58:54.847Z,10.02
